Time,TemperatureF,DewpointF,PressureIn,WindDirection,WindDirectionDegrees,WindSpeedMPH,WindSpeedGustMPH,Humidity,HourlyPrecipIn,Conditions,Clouds,dailyrainin,SoftwareType,DateUTC
2013-01-13 00:18:00,63.1,62.5,29.94,ESE,112,0.0,-999.0,98,-99.99,,,0.00,Acu-Link.com,2013-01-13 05:18:00,
2013-01-13 00:33:00,62.4,61.8,29.94,West,270,0.0,-999.0,98,-99.99,,,0.00,Acu-Link.com,2013-01-13 05:33:00,
2013-01-13 00:49:00,61.9,61.3,29.94,East,90,0.0,-999.0,98,-99.99,,,0.00,Acu-Link.com,2013-01-13 05:49:00,
2013-01-13 01:04:00,61.2,60.6,29.93,SSE,157,0.0,-999.0,98,-99.99,,,0.00,Acu-Link.com,2013-01-13 06:04:00,
2013-01-13 01:19:00,60.8,59.9,29.94,ESE,112,0.0,-999.0,97,-99.99,,,0.00,Acu-Link.com,2013-01-13 06:19:00,
2013-01-13 01:34:00,60.8,60.2,29.94,SSE,157,0.0,-999.0,98,-99.99,,,0.00,Acu-Link.com,2013-01-13 06:34:00,
2013-01-13 01:50:00,60.6,60.3,29.93,SSE,157,0.0,-999.0,99,-99.99,,,0.00,Acu-Link.com,2013-01-13 06:50:00,
2013-01-13 02:05:00,59.9,59.3,29.93,SSE,157,0.0,-999.0,98,-99.99,,,0.00,Acu-Link.com,2013-01-13 07:05:00,
2013-01-13 02:20:00,59.2,58.3,29.93,SSE,157,0.0,-999.0,97,-99.99,,,0.00,Acu-Link.com,2013-01-13 07:20:00,
2013-01-13 02:36:00,58.6,57.8,29.94,SSE,157,0.0,-999.0,97,-99.99,,,0.00,Acu-Link.com,2013-01-13 07:36:00,
2013-01-13 02:51:00,58.3,57.5,29.94,SSE,157,0.0,-999.0,97,-99.99,,,0.00,Acu-Link.com,2013-01-13 07:51:00,
2013-01-13 03:06:00,58.1,57.3,29.93,SSE,157,0.0,-999.0,97,-99.99,,,0.00,Acu-Link.com,2013-01-13 08:06:00,
2013-01-13 03:22:00,58.6,58.3,29.93,SSE,157,0.0,-999.0,99,-99.99,,,0.00,Acu-Link.com,2013-01-13 08:22:00,
2013-01-13 03:37:00,58.1,57.5,29.93,SSE,157,0.0,-999.0,98,-99.99,,,0.00,Acu-Link.com,2013-01-13 08:37:00,
2013-01-13 03:52:00,57.6,57.0,29.92,SSE,157,0.0,-999.0,98,-99.99,,,0.00,Acu-Link.com,2013-01-13 08:52:00,
2013-01-13 04:09:00,57.4,56.6,29.92,SSE,157,0.0,-999.0,97,-99.99,,,0.00,Acu-Link.com,2013-01-13 09:09:00,
2013-01-13 04:24:00,57.4,56.8,29.92,SSE,157,0.0,-999.0,98,-99.99,,,0.00,Acu-Link.com,2013-01-13 09:24:00,
2013-01-13 04:40:00,56.8,56.0,29.92,SSE,157,0.0,-999.0,97,-99.99,,,0.00,Acu-Link.com,2013-01-13 09:40:00,
2013-01-13 04:55:00,57.2,56.9,29.91,SE,135,0.0,-999.0,99,-99.99,,,0.00,Acu-Link.com,2013-01-13 09:55:00,
2013-01-13 05:10:00,56.8,56.5,29.91,SE,135,0.0,-999.0,99,-99.99,,,0.00,Acu-Link.com,2013-01-13 10:10:00,
2013-01-13 05:25:00,57.2,56.9,29.91,SE,135,0.0,-999.0,99,-99.99,,,0.00,Acu-Link.com,2013-01-13 10:25:00,
2013-01-13 05:41:00,57.0,56.4,29.91,SE,135,0.0,-999.0,98,-99.99,,,0.00,Acu-Link.com,2013-01-13 10:41:00,
2013-01-13 05:56:00,57.0,56.4,29.92,SE,135,0.0,-999.0,98,-99.99,,,0.00,Acu-Link.com,2013-01-13 10:56:00,
2013-01-13 06:11:00,56.8,56.2,29.92,SE,135,0.0,-999.0,98,-99.99,,,0.00,Acu-Link.com,2013-01-13 11:11:00,
2013-01-13 06:27:00,56.7,56.1,29.92,SE,135,0.0,-999.0,98,-99.99,,,0.00,Acu-Link.com,2013-01-13 11:27:00,
2013-01-13 06:42:00,57.0,56.7,29.92,SE,135,0.0,-999.0,99,-99.99,,,0.00,Acu-Link.com,2013-01-13 11:42:00,
2013-01-13 06:57:00,56.3,56.0,29.92,SE,135,0.0,-999.0,99,-99.99,,,0.00,Acu-Link.com,2013-01-13 11:57:00,
2013-01-13 07:13:00,56.1,55.8,29.93,SE,135,0.0,-999.0,99,-99.99,,,0.00,Acu-Link.com,2013-01-13 12:13:00,
2013-01-13 07:28:00,56.7,56.4,29.93,SE,135,0.0,-999.0,99,-99.99,,,0.00,Acu-Link.com,2013-01-13 12:28:00,
2013-01-13 07:43:00,57.0,56.7,29.94,SE,135,0.0,-999.0,99,-99.99,,,0.00,Acu-Link.com,2013-01-13 12:43:00,
2013-01-13 07:58:00,58.8,58.5,29.94,SE,135,0.0,-999.0,99,-99.99,,,0.00,Acu-Link.com,2013-01-13 12:58:00,
2013-01-13 08:14:00,64.6,63.1,29.94,ESE,112,0.0,-999.0,95,-99.99,,,0.00,Acu-Link.com,2013-01-13 13:14:00,
2013-01-13 08:29:00,68.9,65.5,29.94,ESE,112,2.7,-999.0,89,-99.99,,,0.00,Acu-Link.com,2013-01-13 13:29:00,
2013-01-13 08:44:00,71.4,66.3,29.95,SSE,157,2.7,-999.0,84,-99.99,,,0.00,Acu-Link.com,2013-01-13 13:44:00,
2013-01-13 09:00:00,73.2,67.7,29.94,SE,135,2.7,-999.0,83,-99.99,,,0.00,Acu-Link.com,2013-01-13 14:00:00,
2013-01-13 09:15:00,74.3,67.4,29.95,ESE,112,3.7,-999.0,79,-99.99,,,0.00,Acu-Link.com,2013-01-13 14:15:00,
2013-01-13 09:30:00,75.4,66.9,29.96,SSE,157,2.2,-999.0,75,-99.99,,,0.00,Acu-Link.com,2013-01-13 14:30:00,
2013-01-13 09:46:00,76.5,66.8,29.97,SE,135,4.7,-999.0,72,-99.99,,,0.00,Acu-Link.com,2013-01-13 14:46:00,
2013-01-13 10:16:00,78.8,66.5,29.99,East,90,5.3,-999.0,66,-99.99,,,0.00,Acu-Link.com,2013-01-13 15:16:00,
2013-01-13 10:31:00,78.3,65.5,30.00,SE,135,3.7,-999.0,65,-99.99,,,0.00,Acu-Link.com,2013-01-13 15:31:00,
2013-01-13 10:47:00,77.2,65.4,30.00,SE,135,2.2,-999.0,67,-99.99,,,0.00,Acu-Link.com,2013-01-13 15:47:00,
2013-01-13 11:02:00,81.7,66.0,29.98,SSE,157,3.7,-999.0,59,-99.99,,,0.00,Acu-Link.com,2013-01-13 16:02:00,
2013-01-13 11:17:00,80.8,66.1,29.99,ESE,112,4.7,-999.0,61,-99.99,,,0.00,Acu-Link.com,2013-01-13 16:17:00,
2013-01-13 11:33:00,81.3,65.6,29.98,ESE,112,3.7,-999.0,59,-99.99,,,0.00,Acu-Link.com,2013-01-13 16:33:00,
2013-01-13 11:48:00,82.2,65.9,29.97,SSE,157,2.2,-999.0,58,-99.99,,,0.00,Acu-Link.com,2013-01-13 16:48:00,
2013-01-13 12:03:00,82.0,65.2,29.97,SSE,157,4.7,-999.0,57,-99.99,,,0.00,Acu-Link.com,2013-01-13 17:03:00,
2013-01-13 12:19:00,80.2,65.5,29.96,NNE,22,2.2,-999.0,61,-99.99,,,0.00,Acu-Link.com,2013-01-13 17:19:00,
2013-01-13 12:34:00,78.3,64.6,29.96,ESE,112,5.3,-999.0,63,-99.99,,,0.00,Acu-Link.com,2013-01-13 17:34:00,
2013-01-13 12:49:00,81.0,65.8,29.95,ESE,112,3.2,-999.0,60,-99.99,,,0.00,Acu-Link.com,2013-01-13 17:49:00,
2013-01-13 13:05:00,78.8,65.1,29.95,SE,135,3.7,-999.0,63,-99.99,,,0.00,Acu-Link.com,2013-01-13 18:05:00,
2013-01-13 13:20:00,79.0,65.3,29.95,SSE,157,5.3,-999.0,63,-99.99,,,0.00,Acu-Link.com,2013-01-13 18:20:00,
2013-01-13 13:35:00,80.1,65.9,29.93,NNE,22,2.7,-999.0,62,-99.99,,,0.00,Acu-Link.com,2013-01-13 18:35:00,
2013-01-13 13:50:00,79.9,65.2,29.93,ESE,112,4.7,-999.0,61,-99.99,,,0.00,Acu-Link.com,2013-01-13 18:50:00,
2013-01-13 14:06:00,81.0,65.8,29.92,East,90,3.7,-999.0,60,-99.99,,,0.00,Acu-Link.com,2013-01-13 19:06:00,
2013-01-13 14:21:00,79.9,64.8,29.92,ENE,67,2.2,-999.0,60,-99.99,,,0.00,Acu-Link.com,2013-01-13 19:21:00,
2013-01-13 14:36:00,79.3,66.0,29.91,WSW,247,5.8,-999.0,64,-99.99,,,0.00,Acu-Link.com,2013-01-13 19:36:00,
2013-01-13 14:52:00,79.0,65.3,29.91,SSE,157,3.2,-999.0,63,-99.99,,,0.00,Acu-Link.com,2013-01-13 19:52:00,
2013-01-13 15:07:00,79.2,66.0,29.92,SSE,157,4.2,-999.0,64,-99.99,,,0.00,Acu-Link.com,2013-01-13 20:07:00,
2013-01-13 15:22:00,79.3,66.5,29.91,ESE,112,3.7,-999.0,65,-99.99,,,0.00,Acu-Link.com,2013-01-13 20:22:00,
2013-01-13 15:38:00,78.1,65.8,29.92,ESE,112,6.8,-999.0,66,-99.99,,,0.00,Acu-Link.com,2013-01-13 20:38:00,
2013-01-13 15:53:00,76.5,65.6,29.94,ESE,112,4.7,-999.0,69,-99.99,,,0.00,Acu-Link.com,2013-01-13 20:53:00,
2013-01-13 16:08:00,75.9,65.4,29.94,ESE,112,2.2,-999.0,70,-99.99,,,0.00,Acu-Link.com,2013-01-13 21:08:00,
2013-01-13 16:23:00,74.8,65.6,29.95,ESE,112,3.7,-999.0,73,-99.99,,,0.00,Acu-Link.com,2013-01-13 21:23:00,
2013-01-13 16:39:00,74.5,66.0,29.96,SE,135,4.7,-999.0,75,-99.99,,,0.00,Acu-Link.com,2013-01-13 21:39:00,
2013-01-13 16:54:00,75.0,66.5,29.96,SSE,157,2.7,-999.0,75,-99.99,,,0.00,Acu-Link.com,2013-01-13 21:54:00,
2013-01-13 17:09:00,73.9,65.8,29.96,WSW,247,3.7,-999.0,76,-99.99,,,0.00,Acu-Link.com,2013-01-13 22:09:00,
2013-01-13 17:25:00,72.9,65.6,29.96,East,90,2.2,-999.0,78,-99.99,,,0.00,Acu-Link.com,2013-01-13 22:25:00,
2013-01-13 17:40:00,72.1,65.6,29.96,SSE,157,0.0,-999.0,80,-99.99,,,0.00,Acu-Link.com,2013-01-13 22:40:00,
2013-01-13 17:55:00,71.1,65.3,29.96,SE,135,0.0,-999.0,82,-99.99,,,0.00,Acu-Link.com,2013-01-13 22:55:00,
2013-01-13 18:11:00,70.2,65.1,29.97,ESE,112,0.0,-999.0,84,-99.99,,,0.00,Acu-Link.com,2013-01-13 23:11:00,
2013-01-13 18:26:00,69.4,64.7,29.97,ESE,112,2.7,-999.0,85,-99.99,,,0.00,Acu-Link.com,2013-01-13 23:26:00,
2013-01-13 18:41:00,69.1,64.7,29.97,NNE,22,0.0,-999.0,86,-99.99,,,0.00,Acu-Link.com,2013-01-13 23:41:00,
2013-01-13 18:56:00,68.9,64.9,29.96,East,90,1.7,-999.0,87,-99.99,,,0.00,Acu-Link.com,2013-01-13 23:56:00,
2013-01-13 19:12:00,69.3,65.3,29.95,South,180,2.7,-999.0,87,-99.99,,,0.00,Acu-Link.com,2013-01-14 00:12:00,
2013-01-13 19:27:00,69.4,65.4,29.95,ESE,112,0.0,-999.0,87,-99.99,,,0.00,Acu-Link.com,2013-01-14 00:27:00,
2013-01-13 19:42:00,69.8,65.1,29.94,SE,135,2.7,-999.0,85,-99.99,,,0.00,Acu-Link.com,2013-01-14 00:42:00,
2013-01-13 19:58:00,69.8,65.1,29.95,SSE,157,4.2,-999.0,85,-99.99,,,0.00,Acu-Link.com,2013-01-14 00:58:00,
2013-01-13 20:13:00,69.8,65.1,29.94,SW,225,2.2,-999.0,85,-99.99,,,0.00,Acu-Link.com,2013-01-14 01:13:00,
2013-01-13 20:28:00,69.8,65.1,29.94,SSE,157,1.7,-999.0,85,-99.99,,,0.00,Acu-Link.com,2013-01-14 01:28:00,